Time;durP1;ratioP1;P1;durP2;ratioP2;P2;SDS_P1;SDS_P2;PMS_P1;PMS_P2;Temp;Humidity;BMP_temperature;BMP_pressure;BME280_temperature;BME280_humidity;BME280_pressure;Samples;Min_cycle;Max_cycle;Signal;HPM_P1;HPM_P2
2022/01/25 00:08:43;;;;;;;2.30;2.20;;;0.30;88.60;-0.70;99750.00;;;;5114528;28;20302;-77
2022/01/25 00:25:11;;;;;;;2.63;2.43;;;0.10;88.70;-0.80;99742.00;;;;5117903;28;20291;-78
2022/01/25 00:27:50;;;;;;;2.03;1.93;;;0.10;88.90;-0.80;99735.00;;;;5118135;28;20588;-77
2022/01/25 00:30:42;;;;;;;2.17;2.07;;;0.10;89.00;-0.90;99738.00;;;;5118006;28;20224;-76
2022/01/25 00:33:09;;;;;;;1.93;1.83;;;0.10;89.10;-0.90;99730.00;;;;5117906;28;20186;-78
2022/01/25 00:35:36;;;;;;;2.07;1.97;;;0.10;89.30;-0.80;99743.00;;;;5099795;28;20327;-77
2022/01/25 00:38:02;;;;;;;2.93;2.33;;;0.10;89.70;-0.90;99712.00;;;;5117722;28;20637;-77
2022/01/25 00:40:30;;;;;;;1.83;1.73;;;0.20;89.70;-0.90;99742.00;;;;5117939;28;20198;-77
2022/01/25 00:42:56;;;;;;;1.37;1.37;;;0.10;89.80;-0.80;99734.00;;;;5099615;28;20587;-77
2022/01/25 00:45:27;;;;;;;4.20;2.13;;;0.20;90.50;-0.80;99742.00;;;;5117670;28;20335;-77
2022/01/25 00:47:54;;;;;;;4.40;1.47;;;0.20;90.50;-0.80;99733.00;;;;5117589;28;20267;-77
2022/01/25 00:50:22;;;;;;;3.97;3.63;;;0.10;90.60;-0.80;99733.00;;;;5117707;28;20709;-78
2022/01/25 00:55:36;;;;;;;2.87;2.30;;;0.20;90.80;-0.80;99751.00;;;;5117471;28;20233;-77
2022/01/25 00:58:03;;;;;;;2.57;2.37;;;0.20;90.60;-0.80;99734.00;;;;5117424;28;20228;-78
2022/01/25 01:00:30;;;;;;;2.07;1.90;;;0.10;90.80;-0.90;99749.00;;;;5117421;28;20212;-78
2022/01/25 01:02:56;;;;;;;2.93;2.73;;;0.10;90.60;-1.10;99741.00;;;;5117089;28;20217;-76
2022/01/25 01:05:23;;;;;;;1.90;1.63;;;0.00;90.50;-1.20;99736.00;;;;5117454;28;20206;-77
2022/01/25 01:07:49;;;;;;;2.43;2.23;;;-0.10;90.90;-1.10;99742.00;;;;5117240;28;20229;-77
2022/01/25 01:10:20;;;;;;;1.80;1.70;;;-0.10;90.70;-1.20;99741.00;;;;5099636;28;20217;-77
2022/01/25 01:13:31;;;;;;;2.27;1.60;;;-0.20;90.40;-1.30;99741.00;;;;5117730;28;20217;-77
2022/01/25 01:16:08;;;;;;;1.60;1.03;;;-0.30;89.70;-1.40;99748.00;;;;5116928;28;20249;-78
2022/01/25 01:29:50;;;;;;;2.07;1.93;;;-0.20;89.90;-1.20;99755.00;;;;5117035;28;20197;-79
2022/01/25 01:32:46;;;;;;;3.37;2.00;;;-0.20;89.90;-1.10;99750.00;;;;5099443;28;20609;-78
2022/01/25 01:38:16;;;;;;;1.57;1.47;;;-0.20;89.20;-1.20;99735.00;;;;5116966;28;20206;-78
2022/01/25 01:41:02;;;;;;;2.63;2.43;;;-0.20;89.70;-1.10;99718.00;;;;5116965;28;20247;-78
2022/01/25 01:43:31;;;;;;;2.13;2.03;;;-0.20;89.50;-1.10;99740.00;;;;5116759;28;20209;-77
2022/01/25 01:46:19;;;;;;;3.10;2.40;;;-0.20;89.20;-1.10;99740.00;;;;5116717;28;20201;-77
2022/01/25 01:48:53;;;;;;;5.60;1.80;;;-0.20;89.20;-1.10;99742.00;;;;5116610;28;20213;-77
2022/01/25 01:51:27;;;;;;;1.30;1.30;;;-0.20;89.40;-1.10;99743.00;;;;5099086;28;20221;-78
2022/01/25 01:53:57;;;;;;;2.13;1.93;;;-0.20;89.40;-1.10;99743.00;;;;5116605;28;20200;-78
2022/01/25 01:56:24;;;;;;;1.90;1.80;;;-0.20;89.40;-1.30;99740.00;;;;5116514;28;20258;-78
2022/01/25 01:58:52;;;;;;;4.77;2.63;;;-0.20;89.20;-1.40;99749.00;;;;5116535;28;20208;-78
2022/01/25 02:01:24;;;;;;;7.63;4.53;;;-0.40;88.70;-1.40;99749.00;;;;5116435;28;20224;-78
2022/01/25 02:03:55;;;;;;;2.13;2.00;;;-0.40;89.40;-1.40;99742.00;;;;5116388;28;20503;-78
2022/01/25 02:06:22;;;;;;;11.03;1.87;;;-0.40;89.30;-1.60;99738.00;;;;5116791;28;20532;-79
2022/01/25 02:08:50;;;;;;;5.07;2.37;;;-0.50;89.10;-1.50;99744.00;;;;5116246;28;20231;-77
2022/01/25 02:11:17;;;;;;;1.80;1.70;;;-0.60;89.60;-1.40;99747.00;;;;5116334;28;20197;-77
2022/01/25 02:13:45;;;;;;;2.40;2.30;;;-0.50;89.70;-1.50;99737.00;;;;5116295;28;20189;-78
2022/01/25 02:16:21;;;;;;;4.13;3.73;;;-0.50;89.40;-1.50;99736.00;;;;5116212;28;20209;-77
2022/01/25 02:24:20;;;;;;;2.10;2.00;;;-0.50;89.60;-1.40;99740.00;;;;5116067;28;20227;-78
2022/01/25 02:26:51;;;;;;;1.20;1.20;;;-0.40;89.40;-1.50;99733.00;;;;5116035;28;20197;-77
2022/01/25 02:29:17;;;;;;;1.77;1.67;;;-0.50;89.00;-1.40;99742.00;;;;5097988;28;20213;-78
2022/01/25 02:31:43;;;;;;;1.97;1.87;;;-0.50;89.00;-1.40;99741.00;;;;5116002;28;20212;-79
2022/01/25 02:34:13;;;;;;;2.47;2.27;;;-0.50;89.40;-1.30;99739.00;;;;5115814;28;20240;-76
2022/01/25 02:36:42;;;;;;;1.90;1.67;;;-0.40;89.20;-1.40;99740.00;;;;5115017;28;20690;-79
2022/01/25 02:39:11;;;;;;;2.57;2.37;;;-0.40;88.90;-1.40;99733.00;;;;5115727;28;20217;-78
2022/01/25 02:41:38;;;;;;;1.50;1.50;;;-0.50;88.70;-1.50;99733.00;;;;5115805;28;20592;-77
2022/01/25 02:44:07;;;;;;;3.13;2.17;;;-0.50;88.90;-1.50;99730.00;;;;5115848;28;20220;-78
2022/01/25 02:49:21;;;;;;;2.23;1.40;;;-0.50;89.50;-1.50;99739.00;;;;5072909;28;20230;-79
2022/01/25 02:51:49;;;;;;;2.00;1.80;;;-0.50;89.30;-1.50;99721.00;;;;5097734;28;20719;-78
2022/01/25 02:54:17;;;;;;;2.57;2.37;;;-0.60;89.20;-1.50;99723.00;;;;5097888;28;20609;-78
2022/01/25 02:56:46;;;;;;;1.77;1.67;;;-0.50;89.40;-1.50;99734.00;;;;5115624;28;20277;-77
2022/01/25 02:59:15;;;;;;;2.43;2.20;;;-0.50;89.50;-1.50;99729.00;;;;5097624;28;20224;-77
2022/01/25 03:01:43;;;;;;;2.30;1.67;;;-0.40;89.50;-1.50;99723.00;;;;5115439;28;20221;-78
2022/01/25 03:04:12;;;;;;;2.27;2.13;;;-0.50;89.30;-1.50;99711.00;;;;5115445;28;20306;-78
2022/01/25 03:06:40;;;;;;;2.53;2.33;;;-0.50;89.10;-1.50;99714.00;;;;5115423;28;20227;-79
2022/01/25 03:09:10;;;;;;;2.30;2.07;;;-0.50;88.90;-1.60;99722.00;;;;5115332;28;20194;-77
2022/01/25 03:11:37;;;;;;;2.33;2.13;;;-0.60;89.20;-1.60;99721.00;;;;5115320;28;20550;-78
2022/01/25 03:14:09;;;;;;;1.57;1.47;;;-0.60;89.10;-1.60;99722.00;;;;5115259;28;20315;-78
2022/01/25 03:16:41;;;;;;;2.10;1.93;;;-0.60;88.90;-1.60;99726.00;;;;5115310;28;20197;-79
2022/01/25 03:21:52;;;;;;;3.00;2.17;;;-0.60;89.10;-1.80;99719.00;;;;5114610;28;20256;-77
2022/01/25 03:24:19;;;;;;;2.17;2.07;;;-0.70;88.60;-1.70;99726.00;;;;5115132;28;20665;-77
2022/01/25 03:26:45;;;;;;;7.30;1.43;;;-0.70;88.90;-1.70;99716.00;;;;5115281;28;20654;-78
2022/01/25 03:29:12;;;;;;;3.47;2.60;;;-0.70;88.70;-1.90;99704.00;;;;5115083;28;20624;-77
2022/01/25 03:31:38;;;;;;;1.83;1.47;;;-0.70;88.30;-1.70;99703.00;;;;5115040;28;20193;-77
2022/01/25 03:34:05;;;;;;;2.00;1.90;;;-0.80;88.80;-1.70;99713.00;;;;5114824;28;20229;-78
2022/01/25 03:36:31;;;;;;;1.67;1.57;;;-0.70;88.70;-1.60;99708.00;;;;5114933;28;20650;-78
2022/01/25 03:38:58;;;;;;;2.50;2.30;;;-0.60;88.60;-1.70;99680.00;;;;5114923;28;20197;-77
2022/01/25 03:41:26;;;;;;;2.53;2.33;;;-0.70;88.70;-1.70;99707.00;;;;5114734;28;20220;-78
2022/01/25 03:43:56;;;;;;;1.70;1.60;;;-0.80;87.90;-1.80;99702.00;;;;5114630;28;20218;-77
2022/01/25 03:46:32;;;;;;;1.83;1.73;;;-0.70;87.90;-1.70;99694.00;;;;5115040;28;20511;-79
2022/01/25 03:51:47;;;;;;;1.77;1.63;;;-0.70;88.40;-1.80;99697.00;;;;5114757;28;20676;-77
2022/01/25 03:54:16;;;;;;;1.63;1.53;;;-0.80;87.80;-1.80;99698.00;;;;5114729;28;20236;-77
2022/01/25 03:56:44;;;;;;;1.27;1.27;;;-0.80;87.90;-1.90;99698.00;;;;5096967;28;20556;-76
2022/01/25 03:59:11;;;;;;;3.03;2.03;;;-0.80;88.20;-1.90;99687.00;;;;5114841;28;20216;-77
2022/01/25 04:01:38;;;;;;;1.27;1.27;;;-0.90;88.50;-2.10;99691.00;;;;5114730;28;20222;-77
2022/01/25 04:04:09;;;;;;;2.20;1.90;;;-0.80;88.40;-1.90;99693.00;;;;5096863;28;20310;-78
2022/01/25 04:06:37;;;;;;;2.23;1.97;;;-0.90;88.80;-1.80;99689.00;;;;5114718;28;20208;-77
2022/01/25 04:09:07;;;;;;;2.67;2.47;;;-0.90;88.70;-1.80;99691.00;;;;5114570;28;20210;-77
2022/01/25 04:11:37;;;;;;;1.50;1.50;;;-0.90;88.50;-1.80;99698.00;;;;5114647;28;20218;-78
2022/01/25 04:14:07;;;;;;;2.03;1.90;;;-0.80;88.20;-1.70;99704.00;;;;5114379;28;20307;-78
2022/01/25 04:16:37;;;;;;;2.60;2.40;;;-0.80;87.90;-1.90;99679.00;;;;5114480;28;20268;-77
2022/01/25 04:19:08;;;;;;;1.93;1.83;;;-0.80;87.40;-1.90;99686.00;;;;5114523;28;20209;-78
2022/01/25 04:24:55;;;;;;;1.47;1.43;;;-1.00;87.30;-2.10;99695.00;;;;5114398;28;20646;-77
2022/01/25 04:27:22;;;;;;;1.97;1.80;;;-1.00;87.90;-2.00;99693.00;;;;5114342;28;20730;-78
2022/01/25 04:29:51;;;;;;;1.40;1.27;;;-1.00;88.50;-2.00;99691.00;;;;5114379;28;20228;-78
2022/01/25 04:32:18;;;;;;;1.50;1.40;;;-1.00;88.00;-2.00;99698.00;;;;5114408;28;20624;-77
2022/01/25 04:34:57;;;;;;;1.43;1.43;;;-1.00;88.40;-2.10;99682.00;;;;5114227;28;20224;-77
2022/01/25 04:51:39;;;;;;;2.87;2.43;;;-1.00;88.40;-1.90;99683.00;;;;5114405;28;20220;-78
2022/01/25 04:54:14;;;;;;;2.47;2.30;;;-0.90;88.20;-2.10;99645.00;;;;5113969;28;20216;-78
2022/01/25 04:56:47;;;;;;;1.87;1.77;;;-1.10;87.70;-2.20;99674.00;;;;5114238;28;20196;-77
2022/01/25 04:59:20;;;;;;;1.83;1.73;;;-1.10;87.80;-2.30;99675.00;;;;5096175;28;20219;-77
2022/01/25 05:01:50;;;;;;;2.30;2.10;;;-1.30;88.20;-2.20;99680.00;;;;5116805;28;20224;-77
2022/01/25 05:04:23;;;;;;;1.83;1.73;;;-1.20;88.80;-2.20;99684.00;;;;5117497;28;20233;-77
2022/01/25 05:06:52;;;;;;;1.87;1.70;;;-1.20;88.60;-2.30;99680.00;;;;5117433;28;20195;-78
2022/01/25 05:09:20;;;;;;;1.50;1.40;;;-1.10;88.70;-2.30;99683.00;;;;5117326;28;20247;-78
2022/01/25 05:11:49;;;;;;;1.33;1.33;;;-1.20;88.40;-2.20;99677.00;;;;5117409;28;20197;-77
2022/01/25 05:14:21;;;;;;;3.23;2.67;;;-1.20;88.70;-2.10;99683.00;;;;5117274;28;20249;-78
2022/01/25 05:16:55;;;;;;;3.30;2.07;;;-1.20;88.60;-2.10;99680.00;;;;5117368;28;20197;-77
2022/01/25 05:22:20;;;;;;;2.30;2.13;;;-1.20;88.30;-2.10;99687.00;;;;5067494;28;20220;-78
2022/01/25 05:24:50;;;;;;;1.13;1.13;;;-1.20;88.50;-2.20;99688.00;;;;5117160;28;20219;-78
2022/01/25 05:27:20;;;;;;;3.33;2.00;;;-1.20;88.30;-2.10;99682.00;;;;5117085;28;20213;-78
2022/01/25 05:29:47;;;;;;;1.53;1.50;;;-1.20;88.60;-2.20;99691.00;;;;5116990;28;20251;-78
2022/01/25 05:32:16;;;;;;;2.17;2.07;;;-1.20;88.40;-2.20;99695.00;;;;5099103;28;20253;-78
2022/01/25 05:34:43;;;;;;;2.10;2.00;;;-1.20;88.50;-2.30;99697.00;;;;5116830;28;20236;-78
2022/01/25 05:37:09;;;;;;;1.17;1.17;;;-1.20;88.30;-2.40;99692.00;;;;5116959;28;20228;-77
2022/01/25 05:39:38;;;;;;;2.33;2.13;;;-1.30;88.50;-2.30;99686.00;;;;5116984;28;20288;-76
2022/01/25 05:42:45;;;;;;;1.70;1.60;;;-1.30;88.80;-2.30;99689.00;;;;5116916;28;20189;-78
2022/01/25 05:45:19;;;;;;;1.73;1.63;;;-1.30;89.20;-2.30;99678.00;;;;5116896;28;20291;-78
2022/01/25 05:47:48;;;;;;;6.53;3.50;;;-1.30;89.60;-2.30;99694.00;;;;5116910;28;20233;-78
2022/01/25 05:50:15;;;;;;;2.40;2.20;;;-1.30;89.70;-2.30;99636.00;;;;5116739;28;20195;-78
2022/01/25 05:52:44;;;;;;;1.57;1.47;;;-1.30;89.50;-2.20;99698.00;;;;5116630;28;20232;-78
2022/01/25 05:55:11;;;;;;;1.27;1.27;;;-1.20;89.70;-2.10;99691.00;;;;5116659;28;20196;-77
2022/01/25 05:57:38;;;;;;;2.40;2.30;;;-1.20;89.70;-2.10;99696.00;;;;5116726;28;20628;-78
2022/01/25 06:00:08;;;;;;;2.47;1.80;;;-1.20;89.40;-2.20;99700.00;;;;5116596;28;20250;-77
2022/01/25 06:02:36;;;;;;;3.50;3.00;;;-1.20;89.00;-2.40;99687.00;;;;5116453;28;20714;-77
2022/01/25 06:05:05;;;;;;;1.90;1.80;;;-1.30;88.70;-2.20;99705.00;;;;5116337;28;20297;-77
2022/01/25 06:07:33;;;;;;;4.20;1.37;;;-1.30;89.50;-2.20;99701.00;;;;5116642;28;20559;-78
2022/01/25 06:10:02;;;;;;;1.37;1.30;;;-1.30;89.20;-2.20;99704.00;;;;5116314;28;20226;-78
2022/01/25 06:12:29;;;;;;;1.77;1.53;;;-1.20;88.90;-2.30;99708.00;;;;5115949;28;20691;-77
2022/01/25 06:14:56;;;;;;;5.23;1.73;;;-1.30;88.60;-2.20;99705.00;;;;5116415;28;20569;-76
2022/01/25 06:17:24;;;;;;;3.17;2.83;;;-1.30;89.30;-2.30;99709.00;;;;5116420;28;20552;-78
2022/01/25 06:19:51;;;;;;;4.50;2.00;;;-1.20;88.80;-2.30;99715.00;;;;5115995;28;20334;-78
2022/01/25 06:22:21;;;;;;;1.63;1.53;;;-1.30;88.80;-2.40;99715.00;;;;5116295;28;20234;-78
2022/01/25 06:24:48;;;;;;;1.83;1.73;;;-1.40;88.70;-2.30;99708.00;;;;5098171;28;20234;-78
2022/01/25 06:27:15;;;;;;;3.07;1.93;;;-1.30;88.80;-2.30;99718.00;;;;5115854;28;20233;-78
2022/01/25 06:29:41;;;;;;;2.67;2.47;;;-1.30;88.90;-2.30;99716.00;;;;5115994;28;20206;-78
2022/01/25 06:32:08;;;;;;;3.33;2.80;;;-1.30;88.50;-2.40;99715.00;;;;5115928;28;20690;-78
2022/01/25 06:34:35;;;;;;;2.80;2.60;;;-1.40;88.00;-2.30;99733.00;;;;5115926;28;20235;-78
2022/01/25 06:37:01;;;;;;;3.23;3.03;;;-1.30;88.10;-2.50;99734.00;;;;5116051;28;20253;-78
2022/01/25 06:39:28;;;;;;;2.20;2.00;;;-1.40;87.80;-2.40;99728.00;;;;5115682;28;20196;-77
2022/01/25 06:41:57;;;;;;;7.30;3.33;;;-1.40;88.10;-2.50;99738.00;;;;5115803;28;20195;-77
2022/01/25 06:44:26;;;;;;;3.63;3.27;;;-1.40;88.10;-2.50;99747.00;;;;5097795;28;20638;-78
2022/01/25 06:46:53;;;;;;;2.23;2.10;;;-1.50;88.20;-2.30;99736.00;;;;5115685;28;20228;-77
2022/01/25 06:49:19;;;;;;;3.33;2.13;;;-1.40;88.70;-2.40;99743.00;;;;5115640;28;20212;-78
2022/01/25 06:51:46;;;;;;;2.67;2.47;;;-1.40;88.00;-2.30;99740.00;;;;5115669;28;20286;-77
2022/01/25 06:54:12;;;;;;;2.90;2.70;;;-1.40;87.80;-2.30;99745.00;;;;5115490;28;20216;-78
2022/01/25 06:56:40;;;;;;;11.43;4.60;;;-1.40;87.20;-2.20;99757.00;;;;5115789;28;20209;-78
2022/01/25 06:59:09;;;;;;;3.20;3.00;;;-1.30;88.00;-2.40;99747.00;;;;5115860;28;20193;-78
2022/01/25 07:01:36;;;;;;;9.50;2.70;;;-1.40;87.20;-2.50;99756.00;;;;5115485;28;20235;-78
2022/01/25 07:04:03;;;;;;;3.93;3.00;;;-1.40;87.30;-2.50;99743.00;;;;5115456;28;20221;-78
2022/01/25 07:06:30;;;;;;;2.23;2.13;;;-1.40;87.70;-2.60;99751.00;;;;5115327;28;20228;-78
2022/01/25 07:08:57;;;;;;;4.87;3.00;;;-1.50;87.30;-2.50;99743.00;;;;5097520;28;20206;-78
2022/01/25 07:11:26;;;;;;;2.80;2.60;;;-1.50;88.20;-2.40;99747.00;;;;5115667;28;20202;-78
2022/01/25 07:13:53;;;;;;;2.63;2.27;;;-1.50;88.00;-2.50;99750.00;;;;5115280;28;20223;-78
2022/01/25 07:16:19;;;;;;;1.83;1.73;;;-1.50;87.70;-2.40;99755.00;;;;5115299;28;20227;-78
2022/01/25 07:18:46;;;;;;;2.23;2.07;;;-1.40;87.70;-2.30;99755.00;;;;5115264;28;20220;-78
2022/01/25 07:21:13;;;;;;;3.00;2.80;;;-1.40;87.60;-2.20;99757.00;;;;5115337;28;20553;-79
2022/01/25 07:23:39;;;;;;;2.17;2.07;;;-1.40;87.60;-2.20;99758.00;;;;5114458;28;20199;-77
2022/01/25 07:26:06;;;;;;;3.63;3.33;;;-1.30;87.70;-2.30;99768.00;;;;5115094;28;20207;-78
2022/01/25 07:28:33;;;;;;;3.53;3.07;;;-1.30;87.40;-2.30;99758.00;;;;5115421;28;20191;-77
2022/01/25 07:31:05;;;;;;;2.17;2.07;;;-1.30;87.60;-2.30;99755.00;;;;5122821;28;20207;-79
2022/01/25 07:33:31;;;;;;;3.30;3.07;;;-1.30;87.40;-2.20;99755.00;;;;5115012;28;20228;-81
2022/01/25 07:35:58;;;;;;;3.57;2.63;;;-1.30;87.80;-2.10;99756.00;;;;5115152;28;20261;-75
2022/01/25 07:38:25;;;;;;;3.83;2.07;;;-1.20;87.90;-2.30;99737.00;;;;5114994;28;20285;-76
2022/01/25 07:40:51;;;;;;;2.17;2.07;;;-1.20;87.60;-2.20;99744.00;;;;5114824;28;20213;-72
2022/01/25 07:43:20;;;;;;;4.77;2.37;;;-1.20;87.80;-2.20;99750.00;;;;5114812;28;20199;-72
2022/01/25 07:45:51;;;;;;;4.17;3.47;;;-1.20;88.00;-2.10;99731.00;;;;5096533;28;20315;-71
2022/01/25 07:48:21;;;;;;;2.07;1.97;;;-1.10;88.50;-2.10;99759.00;;;;5096813;28;20229;-72
2022/01/25 07:50:48;;;;;;;3.00;2.60;;;-1.10;88.40;-2.10;99758.00;;;;5114701;28;20205;-72
2022/01/25 07:53:15;;;;;;;2.60;2.40;;;-1.10;88.60;-2.00;99763.00;;;;5114588;28;20226;-72
2022/01/25 07:55:42;;;;;;;3.70;2.47;;;-1.00;88.80;-1.90;99757.00;;;;5114514;28;20195;-72
2022/01/25 07:58:08;;;;;;;1.97;1.87;;;-1.00;88.60;-2.00;99765.00;;;;5114857;28;20278;-72
2022/01/25 08:00:35;;;;;;;7.17;2.90;;;-1.00;88.20;-1.80;99760.00;;;;5114496;28;20207;-71
2022/01/25 08:03:01;;;;;;;2.27;2.17;;;-0.90;88.80;-1.90;99768.00;;;;5114514;28;20278;-72
2022/01/25 08:05:29;;;;;;;4.00;2.37;;;-0.90;88.30;-1.90;99750.00;;;;5114182;28;20229;-73
2022/01/25 08:07:56;;;;;;;9.10;2.27;;;-0.90;88.40;-1.80;99778.00;;;;5114521;28;20234;-73
2022/01/25 08:10:23;;;;;;;2.87;2.67;;;-0.80;88.40;-1.80;99773.00;;;;5114300;28;20219;-73
2022/01/25 08:12:50;;;;;;;3.30;3.10;;;-0.80;89.40;-1.70;99773.00;;;;5114828;28;20219;-74
2022/01/25 08:15:16;;;;;;;4.80;2.83;;;-0.70;89.60;-1.70;99772.00;;;;5096456;28;20690;-72
2022/01/25 08:17:43;;;;;;;2.23;2.03;;;-0.70;88.60;-1.70;99772.00;;;;5096397;28;20197;-72
2022/01/25 08:20:11;;;;;;;2.80;2.50;;;-0.70;88.60;-1.60;99758.00;;;;5114313;28;20197;-72
2022/01/25 08:22:44;;;;;;;2.20;2.07;;;-0.70;89.20;-1.40;99758.00;;;;5114359;28;20211;-72
2022/01/25 08:25:11;;;;;;;2.87;2.43;;;-0.50;90.10;-1.20;99762.00;;;;5114177;28;20243;-72
2022/01/25 08:27:38;;;;;;;2.33;2.13;;;-0.40;89.00;-1.20;99767.00;;;;5114288;28;20266;-72
2022/01/25 08:30:06;;;;;;;3.03;2.83;;;-0.30;89.00;-1.00;99766.00;;;;5114125;28;20198;-71
2022/01/25 08:32:33;;;;;;;2.50;2.30;;;-0.20;89.20;-1.00;99761.00;;;;5114132;28;20282;-72
2022/01/25 08:34:59;;;;;;;3.20;3.00;;;-0.10;89.10;-0.80;99775.00;;;;5114329;28;20221;-72
2022/01/25 08:37:28;;;;;;;3.63;3.40;;;0.10;89.40;-0.70;99769.00;;;;5117778;28;20279;-72
2022/01/25 08:39:58;;;;;;;2.13;1.93;;;0.20;89.00;-0.60;99760.00;;;;5117842;28;20209;-71
2022/01/25 08:42:25;;;;;;;2.73;2.53;;;0.30;88.80;-0.60;99737.00;;;;5117685;28;20193;-75
2022/01/25 08:44:52;;;;;;;3.10;2.90;;;0.30;88.60;-0.60;99748.00;;;;5117881;28;20320;-73
2022/01/25 08:47:18;;;;;;;2.60;2.40;;;0.30;88.60;-0.60;99762.00;;;;5117757;28;20222;-73
2022/01/25 08:49:45;;;;;;;3.40;3.10;;;0.30;88.70;-0.50;99758.00;;;;5117572;28;20541;-76
2022/01/25 08:52:11;;;;;;;2.83;2.63;;;0.40;89.00;-0.60;99765.00;;;;5117479;28;20228;-74
2022/01/25 08:54:38;;;;;;;1.73;1.63;;;0.50;89.80;-0.30;99760.00;;;;5117627;28;20497;-76
2022/01/25 08:57:06;;;;;;;2.97;2.77;;;0.60;90.00;-0.10;99767.00;;;;5117304;28;20295;-75
2022/01/25 08:59:33;;;;;;;2.03;1.93;;;0.80;89.80;0.00;99758.00;;;;5117576;28;20342;-74
2022/01/25 09:02:00;;;;;;;8.60;3.63;;;0.90;89.70;0.10;99756.00;;;;5099582;28;20609;-74
2022/01/25 09:04:27;;;;;;;2.70;2.40;;;1.00;89.10;0.20;99768.00;;;;5117166;28;20374;-75
2022/01/25 09:06:53;;;;;;;3.33;3.03;;;1.10;89.10;0.30;99767.00;;;;5117418;28;20252;-75
2022/01/25 09:09:20;;;;;;;4.87;2.83;;;1.20;88.90;0.30;99769.00;;;;5117317;28;20190;-75
2022/01/25 09:11:47;;;;;;;4.27;3.17;;;1.20;88.30;0.30;99772.00;;;;5117320;28;20537;-74
2022/01/25 09:14:14;;;;;;;3.30;3.07;;;1.20;88.60;0.40;99774.00;;;;5117105;28;20604;-73
2022/01/25 09:16:41;;;;;;;3.40;3.10;;;1.40;88.70;0.50;99761.00;;;;5117014;28;20347;-76
2022/01/25 09:19:09;;;;;;;4.17;3.03;;;;;0.50;99762.00;;;;5117283;28;20202;-74
2022/01/25 09:21:36;;;;;;;3.17;2.43;;;1.40;87.90;0.60;99761.00;;;;5117152;28;20201;-74
2022/01/25 09:24:04;;;;;;;4.00;3.63;;;1.40;89.00;0.80;99769.00;;;;5117045;28;20234;-73
2022/01/25 09:26:31;;;;;;;3.40;3.20;;;1.60;89.60;0.90;99777.00;;;;5117151;28;20198;-73
2022/01/25 09:28:58;;;;;;;4.83;2.90;;;1.70;89.50;0.90;99765.00;;;;5117049;28;20502;-72
2022/01/25 09:31:26;;;;;;;2.30;2.10;;;1.70;89.90;1.10;99734.00;;;;5116985;28;20207;-72
2022/01/25 09:33:53;;;;;;;5.13;3.30;;;1.90;90.10;1.30;99770.00;;;;5099022;28;20194;-73
2022/01/25 09:36:20;;;;;;;4.10;3.63;;;2.10;89.80;1.30;99758.00;;;;5116957;28;20233;-74
2022/01/25 09:38:49;;;;;;;2.10;2.00;;;2.10;90.40;1.40;99764.00;;;;5117270;28;20202;-74
2022/01/25 09:41:15;;;;;;;1.77;1.67;;;2.20;90.80;1.30;99762.00;;;;5098839;28;20324;-75
2022/01/25 09:43:45;;;;;;;3.87;2.80;;;;;1.30;99763.00;;;;5116678;28;20295;-75
2022/01/25 09:46:11;;;;;;;6.53;4.33;;;2.20;90.00;1.20;99763.00;;;;5098336;28;20306;-75
2022/01/25 09:48:38;;;;;;;6.93;4.03;;;2.10;91.10;1.40;99765.00;;;;5116673;28;20276;-72
2022/01/25 09:51:10;;;;;;;3.30;2.87;;;2.20;90.70;1.50;99757.00;;;;5116790;28;20267;-73
2022/01/25 09:53:40;;;;;;;1.97;1.87;;;2.30;90.80;1.50;99764.00;;;;5116740;28;20668;-72
2022/01/25 09:56:08;;;;;;;2.67;2.57;;;2.40;90.30;1.50;99760.00;;;;5116534;28;20221;-72
2022/01/25 09:58:37;;;;;;;4.50;3.93;;;2.40;89.40;1.60;99762.00;;;;5116569;28;20592;-72
2022/01/25 10:01:05;;;;;;;3.40;3.20;;;2.40;90.00;1.60;99757.00;;;;5116512;28;20267;-73
2022/01/25 10:03:36;;;;;;;4.83;3.50;;;2.40;90.00;1.60;99749.00;;;;5116457;28;20227;-72
2022/01/25 10:06:11;;;;;;;3.03;2.83;;;2.40;89.70;1.70;99769.00;;;;5116480;28;20207;-74
2022/01/25 10:08:39;;;;;;;6.10;2.53;;;2.50;90.00;1.70;99758.00;;;;5116445;28;20220;-73
2022/01/25 10:11:09;;;;;;;5.33;4.87;;;2.50;89.10;1.60;99767.00;;;;5116489;28;20204;-74
2022/01/25 10:13:37;;;;;;;6.70;3.27;;;2.50;90.00;1.60;99768.00;;;;5116296;28;20267;-73
2022/01/25 10:16:07;;;;;;;2.83;2.57;;;2.50;89.80;1.30;99768.00;;;;5116113;28;20245;-72
2022/01/25 10:18:44;;;;;;;3.37;2.90;;;2.30;90.90;1.40;99762.00;;;;5116344;28;20497;-72
2022/01/25 10:21:16;;;;;;;2.90;2.60;;;2.30;92.80;1.70;99767.00;;;;5116157;28;20260;-73
2022/01/25 10:24:06;;;;;;;6.30;2.97;;;2.40;91.70;1.90;99770.00;;;;5116088;28;20239;-74
2022/01/25 10:26:36;;;;;;;3.70;3.40;;;2.60;91.40;1.80;99770.00;;;;5116098;28;20196;-74
2022/01/25 10:29:04;;;;;;;4.20;3.40;;;2.60;90.40;1.90;99780.00;;;;5116002;28;20232;-74
2022/01/25 10:31:37;;;;;;;6.93;4.43;;;2.60;91.10;2.10;99786.00;;;;5116422;28;20197;-73
2022/01/25 10:34:08;;;;;;;2.90;2.23;;;2.80;90.90;2.20;99783.00;;;;5115960;28;20196;-72
2022/01/25 10:36:44;;;;;;;2.97;2.67;;;2.90;90.90;2.20;99781.00;;;;5115956;28;20204;-74
2022/01/25 10:39:12;;;;;;;17.57;4.53;;;2.90;90.30;2.20;99786.00;;;;5115883;28;20342;-72
2022/01/25 10:41:40;;;;;;;3.07;2.57;;;2.90;90.00;2.20;99777.00;;;;5115633;28;20662;-73
2022/01/25 10:44:08;;;;;;;8.20;3.60;;;2.90;90.00;2.20;99776.00;;;;5115688;28;20235;-73
2022/01/25 10:46:35;;;;;;;4.40;2.87;;;3.00;89.70;2.20;99781.00;;;;5115739;28;20220;-72
2022/01/25 10:49:05;;;;;;;5.23;3.70;;;2.90;90.30;2.20;99742.00;;;;5115787;28;20207;-74
2022/01/25 10:51:38;;;;;;;3.27;2.63;;;3.00;89.50;1.90;99773.00;;;;5115731;28;20221;-73
2022/01/25 10:54:12;;;;;;;3.87;2.80;;;2.70;88.40;1.80;99761.00;;;;5115743;28;20280;-70
2022/01/25 10:56:47;;;;;;;7.37;3.27;;;2.60;90.10;2.00;99760.00;;;;5115697;28;20819;-71
2022/01/25 10:59:19;;;;;;;3.23;3.03;;;2.70;90.60;2.00;99761.00;;;;5114494;28;20200;-72
2022/01/25 11:01:53;;;;;;;5.17;3.53;;;2.80;90.10;2.10;99763.00;;;;5115594;28;20207;-72
2022/01/25 11:04:23;;;;;;;3.30;2.97;;;2.90;90.20;2.30;99759.00;;;;5115540;28;20302;-73
2022/01/25 11:07:00;;;;;;;4.43;3.43;;;3.00;88.60;2.40;99711.00;;;;5115886;28;20574;-74
2022/01/25 11:09:36;;;;;;;3.43;3.13;;;3.10;88.20;2.40;99750.00;;;;5097507;28;20213;-72
2022/01/25 11:12:05;;;;;;;7.57;4.00;;;3.10;89.00;2.40;99761.00;;;;5115444;28;20200;-73
2022/01/25 11:14:51;;;;;;;8.73;3.67;;;3.20;88.10;2.40;99765.00;;;;5115325;28;20265;-72
2022/01/25 11:17:17;;;;;;;4.80;4.37;;;3.20;87.70;2.40;99764.00;;;;5115349;28;20207;-72
2022/01/25 11:19:46;;;;;;;2.50;2.40;;;3.20;88.40;2.30;99752.00;;;;5115302;28;20228;-73
2022/01/25 11:22:19;;;;;;;3.60;3.27;;;3.10;88.40;2.40;99747.00;;;;5115456;28;20253;-77
2022/01/25 11:24:49;;;;;;;8.00;3.53;;;3.10;88.70;2.30;99746.00;;;;5115212;28;20224;-74
2022/01/25 11:27:21;;;;;;;2.93;2.83;;;3.10;88.40;2.40;99747.00;;;;5115189;28;20212;-74
2022/01/25 11:29:52;;;;;;;3.07;2.87;;;3.20;89.10;2.50;99761.00;;;;5097161;28;20514;-76
2022/01/25 11:32:24;;;;;;;3.57;3.27;;;3.20;89.20;2.60;99751.00;;;;5097071;28;20254;-73
2022/01/25 11:34:52;;;;;;;3.10;2.90;;;3.30;88.20;2.60;99754.00;;;;5097535;28;20623;-73
2022/01/25 11:37:21;;;;;;;5.30;3.70;;;3.30;88.00;2.60;99731.00;;;;5115171;28;20204;-72
2022/01/25 11:39:50;;;;;;;4.33;4.00;;;3.30;88.40;2.40;99736.00;;;;5115397;28;20228;-72
2022/01/25 11:42:23;;;;;;;3.10;2.90;;;3.30;88.10;2.50;99745.00;;;;5115721;28;20191;-72
2022/01/25 11:44:53;;;;;;;3.53;2.90;;;3.10;87.10;2.10;99721.00;;;;5118408;28;20217;-73
2022/01/25 11:47:29;;;;;;;3.97;3.03;;;3.10;87.80;2.10;99746.00;;;;5120094;28;20366;-73
2022/01/25 11:49:59;;;;;;;3.07;2.63;;;3.00;89.50;2.20;99750.00;;;;5118405;28;20193;-73
2022/01/25 11:52:30;;;;;;;3.70;2.57;;;3.00;89.10;2.30;99753.00;;;;5119260;28;20331;-76
2022/01/25 11:55:22;;;;;;;6.67;2.97;;;3.00;89.40;2.40;99749.00;;;;5114932;28;20226;-76
2022/01/25 11:57:54;;;;;;;3.33;3.13;;;3.10;89.60;2.40;99756.00;;;;5114730;28;20618;-72
2022/01/25 12:00:22;;;;;;;2.77;2.60;;;3.10;88.30;2.40;99756.00;;;;5114988;28;20845;-74
2022/01/25 12:02:51;;;;;;;3.33;3.03;;;3.20;87.50;2.20;99750.00;;;;5115405;28;20244;-71
2022/01/25 12:05:25;;;;;;;1.93;1.83;;;3.10;87.80;2.30;99753.00;;;;5115630;28;20232;-71
2022/01/25 12:08:15;;;;;;;3.07;2.80;;;3.10;89.30;2.30;99761.00;;;;5115681;28;20234;-71
2022/01/25 12:10:54;;;;;;;2.50;2.20;;;3.10;89.40;2.50;99753.00;;;;5119185;28;20234;-72
2022/01/25 12:13:28;;;;;;;6.97;3.93;;;3.20;89.30;2.60;99753.00;;;;5114957;28;20214;-71
2022/01/25 12:16:26;;;;;;;4.00;3.63;;;3.30;88.50;2.50;99747.00;;;;5114527;28;20196;-71
2022/01/25 12:18:55;;;;;;;3.40;3.10;;;3.20;88.40;2.50;99748.00;;;;5113923;28;20239;-71
2022/01/25 12:22:32;;;;;;;6.77;3.13;;;3.20;89.10;2.20;99747.00;;;;5114573;28;20286;-71
2022/01/25 12:25:11;;;;;;;6.73;4.83;;;3.20;88.10;2.40;99743.00;;;;5114269;28;20221;-71